sensor_id;sensor_type;location;lat;lon;timestamp;P1;durP1;ratioP1;P2;durP2;ratioP2
50779;SDS011;36748;37.428;-121.972;2023-11-22T00:01:57;1.08;;;0.60;;
50779;SDS011;36748;37.428;-121.972;2023-11-22T00:04:23;1.30;;;1.00;;
50779;SDS011;36748;37.428;-121.972;2023-11-22T00:06:50;1.27;;;0.88;;
50779;SDS011;36748;37.428;-121.972;2023-11-22T00:09:16;1.20;;;0.80;;
50779;SDS011;36748;37.428;-121.972;2023-11-22T00:11:47;1.58;;;0.80;;
50779;SDS011;36748;37.428;-121.972;2023-11-22T00:14:14;1.38;;;0.88;;
50779;SDS011;36748;37.428;-121.972;2023-11-22T00:16:40;1.05;;;0.63;;
50779;SDS011;36748;37.428;-121.972;2023-11-22T00:19:06;1.48;;;0.73;;
50779;SDS011;36748;37.428;-121.972;2023-11-22T00:21:32;2.90;;;1.00;;
50779;SDS011;36748;37.428;-121.972;2023-11-22T00:23:59;1.02;;;0.85;;
50779;SDS011;36748;37.428;-121.972;2023-11-22T00:26:25;2.35;;;0.80;;
50779;SDS011;36748;37.428;-121.972;2023-11-22T00:28:51;0.80;;;0.70;;
50779;SDS011;36748;37.428;-121.972;2023-11-22T00:31:19;1.45;;;0.90;;
50779;SDS011;36748;37.428;-121.972;2023-11-22T00:33:45;0.90;;;0.85;;
50779;SDS011;36748;37.428;-121.972;2023-11-22T00:36:11;0.80;;;0.80;;
50779;SDS011;36748;37.428;-121.972;2023-11-22T00:38:38;1.25;;;0.70;;
50779;SDS011;36748;37.428;-121.972;2023-11-22T00:41:04;1.00;;;0.80;;
50779;SDS011;36748;37.428;-121.972;2023-11-22T00:43:32;1.23;;;0.85;;
50779;SDS011;36748;37.428;-121.972;2023-11-22T00:45:58;1.33;;;0.90;;
50779;SDS011;36748;37.428;-121.972;2023-11-22T00:48:25;1.15;;;0.60;;
50779;SDS011;36748;37.428;-121.972;2023-11-22T00:50:51;1.38;;;0.77;;
50779;SDS011;36748;37.428;-121.972;2023-11-22T00:53:17;1.50;;;0.85;;
50779;SDS011;36748;37.428;-121.972;2023-11-22T00:55:44;1.05;;;0.77;;
50779;SDS011;36748;37.428;-121.972;2023-11-22T00:58:10;0.73;;;0.73;;
50779;SDS011;36748;37.428;-121.972;2023-11-22T01:00:37;3.50;;;1.00;;
50779;SDS011;36748;37.428;-121.972;2023-11-22T01:03:03;0.70;;;0.70;;
50779;SDS011;36748;37.428;-121.972;2023-11-22T01:05:30;1.75;;;0.80;;
50779;SDS011;36748;37.428;-121.972;2023-11-22T01:07:56;1.88;;;1.02;;
50779;SDS011;36748;37.428;-121.972;2023-11-22T01:10:22;1.52;;;0.90;;
50779;SDS011;36748;37.428;-121.972;2023-11-22T01:12:48;1.15;;;0.82;;
50779;SDS011;36748;37.428;-121.972;2023-11-22T01:15:15;1.15;;;0.70;;
50779;SDS011;36748;37.428;-121.972;2023-11-22T01:17:41;1.23;;;0.88;;
50779;SDS011;36748;37.428;-121.972;2023-11-22T01:20:08;1.33;;;1.00;;
50779;SDS011;36748;37.428;-121.972;2023-11-22T01:22:39;1.02;;;0.70;;
50779;SDS011;36748;37.428;-121.972;2023-11-22T01:25:05;1.35;;;0.90;;
50779;SDS011;36748;37.428;-121.972;2023-11-22T01:27:32;1.48;;;0.85;;
50779;SDS011;36748;37.428;-121.972;2023-11-22T01:29:59;1.00;;;0.80;;
50779;SDS011;36748;37.428;-121.972;2023-11-22T01:32:29;0.80;;;0.70;;
50779;SDS011;36748;37.428;-121.972;2023-11-22T01:34:56;1.27;;;0.82;;
50779;SDS011;36748;37.428;-121.972;2023-11-22T01:37:24;1.52;;;1.10;;
50779;SDS011;36748;37.428;-121.972;2023-11-22T01:39:55;3.13;;;1.10;;
50779;SDS011;36748;37.428;-121.972;2023-11-22T01:42:23;1.10;;;0.98;;
50779;SDS011;36748;37.428;-121.972;2023-11-22T01:44:50;1.10;;;0.77;;
50779;SDS011;36748;37.428;-121.972;2023-11-22T01:47:20;0.88;;;0.60;;
50779;SDS011;36748;37.428;-121.972;2023-11-22T01:49:48;1.52;;;0.80;;
50779;SDS011;36748;37.428;-121.972;2023-11-22T01:52:15;0.77;;;0.70;;
50779;SDS011;36748;37.428;-121.972;2023-11-22T01:54:42;1.35;;;0.82;;
50779;SDS011;36748;37.428;-121.972;2023-11-22T01:57:09;1.30;;;0.57;;
50779;SDS011;36748;37.428;-121.972;2023-11-22T01:59:38;1.65;;;0.77;;
50779;SDS011;36748;37.428;-121.972;2023-11-22T02:02:05;1.13;;;0.73;;
50779;SDS011;36748;37.428;-121.972;2023-11-22T02:04:32;2.47;;;0.73;;
50779;SDS011;36748;37.428;-121.972;2023-11-22T02:06:58;1.52;;;0.80;;
50779;SDS011;36748;37.428;-121.972;2023-11-22T02:09:25;1.52;;;0.80;;
50779;SDS011;36748;37.428;-121.972;2023-11-22T02:11:52;0.88;;;0.75;;
50779;SDS011;36748;37.428;-121.972;2023-11-22T02:14:19;0.68;;;0.68;;
50779;SDS011;36748;37.428;-121.972;2023-11-22T02:16:46;0.70;;;0.65;;
50779;SDS011;36748;37.428;-121.972;2023-11-22T02:19:16;1.70;;;0.90;;
50779;SDS011;36748;37.428;-121.972;2023-11-22T02:21:43;1.42;;;0.70;;
50779;SDS011;36748;37.428;-121.972;2023-11-22T02:24:11;1.40;;;1.00;;
50779;SDS011;36748;37.428;-121.972;2023-11-22T02:26:37;0.77;;;0.73;;
50779;SDS011;36748;37.428;-121.972;2023-11-22T02:29:12;0.82;;;0.82;;
50779;SDS011;36748;37.428;-121.972;2023-11-22T02:31:41;2.35;;;0.80;;
50779;SDS011;36748;37.428;-121.972;2023-11-22T02:34:11;1.30;;;0.75;;
50779;SDS011;36748;37.428;-121.972;2023-11-22T02:36:38;0.82;;;0.60;;
50779;SDS011;36748;37.428;-121.972;2023-11-22T02:39:04;1.30;;;0.80;;
50779;SDS011;36748;37.428;-121.972;2023-11-22T02:41:31;0.90;;;0.80;;
50779;SDS011;36748;37.428;-121.972;2023-11-22T02:44:00;0.82;;;0.70;;
50779;SDS011;36748;37.428;-121.972;2023-11-22T02:46:28;0.73;;;0.60;;
50779;SDS011;36748;37.428;-121.972;2023-11-22T02:48:56;0.80;;;0.70;;
50779;SDS011;36748;37.428;-121.972;2023-11-22T02:51:24;0.85;;;0.70;;
50779;SDS011;36748;37.428;-121.972;2023-11-22T02:53:53;0.80;;;0.60;;
50779;SDS011;36748;37.428;-121.972;2023-11-22T02:56:19;2.17;;;1.00;;
50779;SDS011;36748;37.428;-121.972;2023-11-22T02:58:46;1.67;;;1.00;;
50779;SDS011;36748;37.428;-121.972;2023-11-22T03:01:14;1.05;;;0.82;;
50779;SDS011;36748;37.428;-121.972;2023-11-22T03:03:41;1.02;;;0.90;;
50779;SDS011;36748;37.428;-121.972;2023-11-22T03:06:09;0.85;;;0.80;;
50779;SDS011;36748;37.428;-121.972;2023-11-22T03:08:35;0.80;;;0.77;;
50779;SDS011;36748;37.428;-121.972;2023-11-22T03:11:03;2.55;;;0.80;;
50779;SDS011;36748;37.428;-121.972;2023-11-22T03:13:30;0.60;;;0.60;;
50779;SDS011;36748;37.428;-121.972;2023-11-22T03:15:58;0.50;;;0.50;;
50779;SDS011;36748;37.428;-121.972;2023-11-22T03:18:25;0.90;;;0.75;;
50779;SDS011;36748;37.428;-121.972;2023-11-22T03:20:52;1.02;;;0.90;;
50779;SDS011;36748;37.428;-121.972;2023-11-22T03:23:20;1.75;;;0.73;;
50779;SDS011;36748;37.428;-121.972;2023-11-22T03:25:47;1.23;;;0.75;;
50779;SDS011;36748;37.428;-121.972;2023-11-22T03:28:15;0.98;;;0.80;;
50779;SDS011;36748;37.428;-121.972;2023-11-22T03:30:43;1.33;;;1.00;;
50779;SDS011;36748;37.428;-121.972;2023-11-22T03:33:10;1.00;;;0.82;;
50779;SDS011;36748;37.428;-121.972;2023-11-22T03:35:37;1.08;;;0.88;;
50779;SDS011;36748;37.428;-121.972;2023-11-22T03:38:05;0.95;;;0.90;;
50779;SDS011;36748;37.428;-121.972;2023-11-22T03:40:33;1.63;;;1.00;;
50779;SDS011;36748;37.428;-121.972;2023-11-22T03:43:00;1.38;;;0.70;;
50779;SDS011;36748;37.428;-121.972;2023-11-22T03:45:27;3.25;;;1.20;;
50779;SDS011;36748;37.428;-121.972;2023-11-22T03:47:57;1.27;;;0.80;;
50779;SDS011;36748;37.428;-121.972;2023-11-22T03:50:25;1.30;;;0.88;;
50779;SDS011;36748;37.428;-121.972;2023-11-22T03:52:51;1.27;;;0.90;;
50779;SDS011;36748;37.428;-121.972;2023-11-22T03:55:18;1.52;;;1.15;;
50779;SDS011;36748;37.428;-121.972;2023-11-22T03:57:45;1.65;;;1.02;;
50779;SDS011;36748;37.428;-121.972;2023-11-22T04:00:12;1.13;;;0.82;;
50779;SDS011;36748;37.428;-121.972;2023-11-22T04:02:39;0.77;;;0.70;;
50779;SDS011;36748;37.428;-121.972;2023-11-22T04:05:07;1.67;;;0.98;;
50779;SDS011;36748;37.428;-121.972;2023-11-22T04:07:36;1.15;;;1.00;;
50779;SDS011;36748;37.428;-121.972;2023-11-22T04:10:04;0.88;;;0.80;;
50779;SDS011;36748;37.428;-121.972;2023-11-22T04:12:31;2.17;;;0.90;;
50779;SDS011;36748;37.428;-121.972;2023-11-22T04:14:58;1.33;;;1.08;;
50779;SDS011;36748;37.428;-121.972;2023-11-22T04:17:24;1.08;;;0.90;;
50779;SDS011;36748;37.428;-121.972;2023-11-22T04:19:50;1.38;;;0.95;;
50779;SDS011;36748;37.428;-121.972;2023-11-22T04:22:16;1.35;;;0.90;;
50779;SDS011;36748;37.428;-121.972;2023-11-22T04:24:43;2.45;;;1.20;;
50779;SDS011;36748;37.428;-121.972;2023-11-22T04:27:09;0.73;;;0.73;;
50779;SDS011;36748;37.428;-121.972;2023-11-22T04:29:36;1.88;;;1.08;;
50779;SDS011;36748;37.428;-121.972;2023-11-22T04:32:02;0.88;;;0.75;;
50779;SDS011;36748;37.428;-121.972;2023-11-22T04:34:28;1.25;;;0.88;;
50779;SDS011;36748;37.428;-121.972;2023-11-22T04:36:54;0.98;;;0.82;;
50779;SDS011;36748;37.428;-121.972;2023-11-22T04:39:20;0.98;;;0.80;;
50779;SDS011;36748;37.428;-121.972;2023-11-22T04:41:46;1.48;;;1.20;;
50779;SDS011;36748;37.428;-121.972;2023-11-22T04:44:13;1.08;;;0.93;;
50779;SDS011;36748;37.428;-121.972;2023-11-22T04:46:39;0.90;;;0.77;;
50779;SDS011;36748;37.428;-121.972;2023-11-22T04:49:05;1.48;;;1.02;;
50779;SDS011;36748;37.428;-121.972;2023-11-22T04:51:32;1.63;;;1.10;;
50779;SDS011;36748;37.428;-121.972;2023-11-22T04:53:59;0.90;;;0.90;;
50779;SDS011;36748;37.428;-121.972;2023-11-22T04:56:25;1.17;;;0.95;;
50779;SDS011;36748;37.428;-121.972;2023-11-22T04:58:52;1.67;;;1.00;;
50779;SDS011;36748;37.428;-121.972;2023-11-22T05:01:18;1.50;;;1.08;;
50779;SDS011;36748;37.428;-121.972;2023-11-22T05:03:44;1.70;;;0.90;;
50779;SDS011;36748;37.428;-121.972;2023-11-22T05:06:10;1.60;;;1.17;;
50779;SDS011;36748;37.428;-121.972;2023-11-22T05:08:37;1.45;;;1.00;;
50779;SDS011;36748;37.428;-121.972;2023-11-22T05:11:04;1.33;;;0.90;;
50779;SDS011;36748;37.428;-121.972;2023-11-22T05:13:30;1.35;;;1.02;;
50779;SDS011;36748;37.428;-121.972;2023-11-22T05:15:56;1.15;;;0.70;;
50779;SDS011;36748;37.428;-121.972;2023-11-22T05:18:23;1.00;;;0.90;;
50779;SDS011;36748;37.428;-121.972;2023-11-22T05:20:49;0.77;;;0.75;;
50779;SDS011;36748;37.428;-121.972;2023-11-22T05:23:15;1.63;;;1.00;;
50779;SDS011;36748;37.428;-121.972;2023-11-22T05:25:41;1.27;;;0.90;;
50779;SDS011;36748;37.428;-121.972;2023-11-22T05:28:07;1.25;;;1.00;;
50779;SDS011;36748;37.428;-121.972;2023-11-22T05:30:33;1.50;;;1.00;;
50779;SDS011;36748;37.428;-121.972;2023-11-22T05:33:00;0.82;;;0.82;;
50779;SDS011;36748;37.428;-121.972;2023-11-22T05:35:26;1.95;;;0.90;;
50779;SDS011;36748;37.428;-121.972;2023-11-22T05:37:52;1.10;;;0.82;;
50779;SDS011;36748;37.428;-121.972;2023-11-22T05:40:18;1.27;;;1.00;;
50779;SDS011;36748;37.428;-121.972;2023-11-22T05:42:45;0.70;;;0.70;;
50779;SDS011;36748;37.428;-121.972;2023-11-22T05:45:12;0.90;;;0.82;;
50779;SDS011;36748;37.428;-121.972;2023-11-22T05:47:38;1.25;;;1.05;;
50779;SDS011;36748;37.428;-121.972;2023-11-22T05:50:04;1.52;;;1.00;;
50779;SDS011;36748;37.428;-121.972;2023-11-22T05:52:33;1.40;;;0.90;;
50779;SDS011;36748;37.428;-121.972;2023-11-22T05:54:59;1.55;;;0.85;;
50779;SDS011;36748;37.428;-121.972;2023-11-22T05:57:28;0.93;;;0.80;;
50779;SDS011;36748;37.428;-121.972;2023-11-22T05:59:56;1.80;;;0.90;;
50779;SDS011;36748;37.428;-121.972;2023-11-22T06:02:22;0.95;;;0.60;;
50779;SDS011;36748;37.428;-121.972;2023-11-22T06:04:48;1.33;;;0.90;;
50779;SDS011;36748;37.428;-121.972;2023-11-22T06:07:15;3.53;;;1.10;;
50779;SDS011;36748;37.428;-121.972;2023-11-22T06:09:41;2.05;;;0.90;;
50779;SDS011;36748;37.428;-121.972;2023-11-22T06:12:07;0.88;;;0.88;;
50779;SDS011;36748;37.428;-121.972;2023-11-22T06:14:33;0.82;;;0.73;;
50779;SDS011;36748;37.428;-121.972;2023-11-22T06:16:59;1.65;;;1.15;;
50779;SDS011;36748;37.428;-121.972;2023-11-22T06:19:25;0.98;;;0.93;;
50779;SDS011;36748;37.428;-121.972;2023-11-22T06:21:52;1.00;;;0.90;;
50779;SDS011;36748;37.428;-121.972;2023-11-22T06:24:18;1.40;;;0.95;;
50779;SDS011;36748;37.428;-121.972;2023-11-22T06:26:45;1.17;;;1.08;;
50779;SDS011;36748;37.428;-121.972;2023-11-22T06:29:11;1.48;;;1.00;;
50779;SDS011;36748;37.428;-121.972;2023-11-22T06:31:38;1.63;;;1.20;;
50779;SDS011;36748;37.428;-121.972;2023-11-22T06:34:04;0.98;;;0.90;;
50779;SDS011;36748;37.428;-121.972;2023-11-22T06:36:31;1.75;;;0.98;;
50779;SDS011;36748;37.428;-121.972;2023-11-22T06:38:58;1.05;;;0.90;;
50779;SDS011;36748;37.428;-121.972;2023-11-22T06:41:24;1.10;;;1.00;;
50779;SDS011;36748;37.428;-121.972;2023-11-22T06:43:51;1.63;;;1.20;;
50779;SDS011;36748;37.428;-121.972;2023-11-22T06:46:17;1.27;;;0.88;;
50779;SDS011;36748;37.428;-121.972;2023-11-22T06:48:43;1.75;;;0.90;;
50779;SDS011;36748;37.428;-121.972;2023-11-22T06:51:09;1.35;;;0.90;;
50779;SDS011;36748;37.428;-121.972;2023-11-22T06:53:36;1.67;;;1.10;;
50779;SDS011;36748;37.428;-121.972;2023-11-22T06:56:02;1.63;;;1.00;;
50779;SDS011;36748;37.428;-121.972;2023-11-22T06:58:28;2.03;;;1.23;;
50779;SDS011;36748;37.428;-121.972;2023-11-22T07:00:55;1.58;;;1.17;;
50779;SDS011;36748;37.428;-121.972;2023-11-22T07:03:21;1.52;;;1.00;;
50779;SDS011;36748;37.428;-121.972;2023-11-22T07:05:47;1.63;;;0.90;;
50779;SDS011;36748;37.428;-121.972;2023-11-22T07:08:13;1.30;;;0.88;;
50779;SDS011;36748;37.428;-121.972;2023-11-22T07:10:42;2.45;;;1.30;;
50779;SDS011;36748;37.428;-121.972;2023-11-22T07:13:10;1.20;;;0.98;;
50779;SDS011;36748;37.428;-121.972;2023-11-22T07:15:38;1.52;;;1.05;;
50779;SDS011;36748;37.428;-121.972;2023-11-22T07:18:06;1.83;;;1.48;;
50779;SDS011;36748;37.428;-121.972;2023-11-22T07:20:33;1.58;;;1.02;;
50779;SDS011;36748;37.428;-121.972;2023-11-22T07:22:59;1.38;;;0.95;;
50779;SDS011;36748;37.428;-121.972;2023-11-22T07:25:25;1.40;;;1.10;;
50779;SDS011;36748;37.428;-121.972;2023-11-22T07:27:51;1.55;;;0.85;;
50779;SDS011;36748;37.428;-121.972;2023-11-22T07:30:21;1.63;;;1.02;;
50779;SDS011;36748;37.428;-121.972;2023-11-22T07:32:52;1.42;;;1.10;;
50779;SDS011;36748;37.428;-121.972;2023-11-22T07:35:19;2.70;;;1.00;;
50779;SDS011;36748;37.428;-121.972;2023-11-22T07:37:48;0.77;;;0.73;;
50779;SDS011;36748;37.428;-121.972;2023-11-22T07:40:17;1.85;;;0.82;;
50779;SDS011;36748;37.428;-121.972;2023-11-22T07:42:44;2.15;;;1.13;;
50779;SDS011;36748;37.428;-121.972;2023-11-22T07:45:10;1.30;;;1.20;;
50779;SDS011;36748;37.428;-121.972;2023-11-22T07:47:39;0.82;;;0.82;;
50779;SDS011;36748;37.428;-121.972;2023-11-22T07:50:07;0.80;;;0.80;;
50779;SDS011;36748;37.428;-121.972;2023-11-22T07:52:34;1.20;;;0.90;;
50779;SDS011;36748;37.428;-121.972;2023-11-22T07:55:01;1.15;;;1.05;;
50779;SDS011;36748;37.428;-121.972;2023-11-22T07:57:28;3.25;;;1.00;;
50779;SDS011;36748;37.428;-121.972;2023-11-22T07:59:54;1.85;;;1.17;;
50779;SDS011;36748;37.428;-121.972;2023-11-22T08:02:21;1.40;;;0.85;;
50779;SDS011;36748;37.428;-121.972;2023-11-22T08:04:48;1.40;;;1.20;;
50779;SDS011;36748;37.428;-121.972;2023-11-22T08:07:16;1.85;;;1.10;;
50779;SDS011;36748;37.428;-121.972;2023-11-22T08:09:42;2.13;;;0.82;;
50779;SDS011;36748;37.428;-121.972;2023-11-22T08:12:11;2.20;;;1.10;;
50779;SDS011;36748;37.428;-121.972;2023-11-22T08:14:38;1.45;;;1.10;;
50779;SDS011;36748;37.428;-121.972;2023-11-22T08:17:05;1.27;;;1.10;;
50779;SDS011;36748;37.428;-121.972;2023-11-22T08:19:32;1.63;;;1.10;;
50779;SDS011;36748;37.428;-121.972;2023-11-22T08:21:58;1.00;;;0.90;;
50779;SDS011;36748;37.428;-121.972;2023-11-22T08:24:24;1.63;;;1.10;;
50779;SDS011;36748;37.428;-121.972;2023-11-22T08:26:50;1.77;;;1.40;;
50779;SDS011;36748;37.428;-121.972;2023-11-22T08:29:17;1.35;;;1.13;;
50779;SDS011;36748;37.428;-121.972;2023-11-22T08:31:43;1.08;;;0.90;;
50779;SDS011;36748;37.428;-121.972;2023-11-22T08:34:09;1.20;;;1.10;;
50779;SDS011;36748;37.428;-121.972;2023-11-22T08:36:36;1.58;;;1.20;;
50779;SDS011;36748;37.428;-121.972;2023-11-22T08:39:03;1.20;;;1.00;;
50779;SDS011;36748;37.428;-121.972;2023-11-22T08:41:30;1.35;;;1.17;;
50779;SDS011;36748;37.428;-121.972;2023-11-22T08:43:57;1.30;;;1.20;;
50779;SDS011;36748;37.428;-121.972;2023-11-22T08:46:23;1.50;;;0.98;;
50779;SDS011;36748;37.428;-121.972;2023-11-22T08:48:50;1.42;;;1.10;;
50779;SDS011;36748;37.428;-121.972;2023-11-22T08:51:19;1.65;;;1.17;;
50779;SDS011;36748;37.428;-121.972;2023-11-22T08:53:45;2.17;;;1.30;;
50779;SDS011;36748;37.428;-121.972;2023-11-22T08:56:11;3.83;;;1.23;;
50779;SDS011;36748;37.428;-121.972;2023-11-22T08:58:38;1.60;;;1.10;;
50779;SDS011;36748;37.428;-121.972;2023-11-22T09:01:05;1.23;;;1.13;;
50779;SDS011;36748;37.428;-121.972;2023-11-22T09:03:33;1.25;;;1.08;;
50779;SDS011;36748;37.428;-121.972;2023-11-22T09:05:59;1.48;;;1.23;;
50779;SDS011;36748;37.428;-121.972;2023-11-22T09:08:26;1.50;;;1.10;;
50779;SDS011;36748;37.428;-121.972;2023-11-22T09:10:52;3.10;;;1.38;;
50779;SDS011;36748;37.428;-121.972;2023-11-22T09:13:19;1.50;;;1.02;;
50779;SDS011;36748;37.428;-121.972;2023-11-22T09:15:46;1.42;;;1.00;;
50779;SDS011;36748;37.428;-121.972;2023-11-22T09:18:12;1.02;;;0.93;;
50779;SDS011;36748;37.428;-121.972;2023-11-22T09:20:39;1.45;;;1.27;;
50779;SDS011;36748;37.428;-121.972;2023-11-22T09:23:09;1.25;;;1.08;;
50779;SDS011;36748;37.428;-121.972;2023-11-22T09:25:35;1.13;;;0.90;;
50779;SDS011;36748;37.428;-121.972;2023-11-22T09:28:02;1.10;;;1.00;;
50779;SDS011;36748;37.428;-121.972;2023-11-22T09:30:31;2.20;;;1.08;;
50779;SDS011;36748;37.428;-121.972;2023-11-22T09:35:47;1.20;;;1.10;;
50779;SDS011;36748;37.428;-121.972;2023-11-22T09:38:14;1.80;;;1.30;;
50779;SDS011;36748;37.428;-121.972;2023-11-22T09:40:48;2.78;;;1.20;;
50779;SDS011;36748;37.428;-121.972;2023-11-22T09:43:15;1.48;;;1.00;;
50779;SDS011;36748;37.428;-121.972;2023-11-22T09:45:44;1.23;;;1.13;;
50779;SDS011;36748;37.428;-121.972;2023-11-22T09:48:20;1.88;;;1.30;;
50779;SDS011;36748;37.428;-121.972;2023-11-22T09:53:56;1.48;;;1.27;;
50779;SDS011;36748;37.428;-121.972;2023-11-22T09:56:29;1.48;;;1.13;;
50779;SDS011;36748;37.428;-121.972;2023-11-22T09:58:58;1.73;;;1.27;;
50779;SDS011;36748;37.428;-121.972;2023-11-22T10:01:45;1.95;;;1.35;;
50779;SDS011;36748;37.428;-121.972;2023-11-22T10:04:12;1.67;;;1.40;;
50779;SDS011;36748;37.428;-121.972;2023-11-22T10:06:38;1.95;;;1.13;;
50779;SDS011;36748;37.428;-121.972;2023-11-22T10:09:06;1.50;;;1.40;;
50779;SDS011;36748;37.428;-121.972;2023-11-22T10:11:35;1.55;;;1.40;;
50779;SDS011;36748;37.428;-121.972;2023-11-22T10:14:23;1.23;;;1.13;;
50779;SDS011;36748;37.428;-121.972;2023-11-22T10:16:59;1.08;;;1.08;;
50779;SDS011;36748;37.428;-121.972;2023-11-22T10:19:26;1.27;;;1.10;;
50779;SDS011;36748;37.428;-121.972;2023-11-22T10:22:07;2.53;;;1.50;;
50779;SDS011;36748;37.428;-121.972;2023-11-22T10:24:34;1.38;;;1.10;;
50779;SDS011;36748;37.428;-121.972;2023-11-22T10:27:01;1.20;;;1.05;;
50779;SDS011;36748;37.428;-121.972;2023-11-22T10:29:28;1.95;;;1.15;;
50779;SDS011;36748;37.428;-121.972;2023-11-22T10:31:54;1.83;;;1.17;;
50779;SDS011;36748;37.428;-121.972;2023-11-22T10:34:21;1.83;;;1.40;;
50779;SDS011;36748;37.428;-121.972;2023-11-22T10:36:48;0.98;;;0.98;;
50779;SDS011;36748;37.428;-121.972;2023-11-22T10:39:21;1.02;;;0.93;;
50779;SDS011;36748;37.428;-121.972;2023-11-22T10:41:47;1.80;;;1.50;;
50779;SDS011;36748;37.428;-121.972;2023-11-22T10:44:17;1.85;;;1.35;;
50779;SDS011;36748;37.428;-121.972;2023-11-22T10:46:46;2.38;;;1.40;;
50779;SDS011;36748;37.428;-121.972;2023-11-22T10:49:13;1.42;;;1.30;;
50779;SDS011;36748;37.428;-121.972;2023-11-22T10:51:39;1.38;;;1.20;;
50779;SDS011;36748;37.428;-121.972;2023-11-22T10:54:10;1.40;;;1.30;;
50779;SDS011;36748;37.428;-121.972;2023-11-22T10:56:38;1.13;;;1.02;;
50779;SDS011;36748;37.428;-121.972;2023-11-22T10:59:15;2.15;;;1.30;;
50779;SDS011;36748;37.428;-121.972;2023-11-22T11:01:45;1.33;;;1.23;;
50779;SDS011;36748;37.428;-121.972;2023-11-22T11:04:19;1.25;;;1.05;;
50779;SDS011;36748;37.428;-121.972;2023-11-22T11:06:51;1.40;;;1.15;;
50779;SDS011;36748;37.428;-121.972;2023-11-22T11:09:20;1.48;;;1.25;;
50779;SDS011;36748;37.428;-121.972;2023-11-22T11:11:52;1.42;;;1.10;;
50779;SDS011;36748;37.428;-121.972;2023-11-22T11:14:18;1.52;;;1.20;;
50779;SDS011;36748;37.428;-121.972;2023-11-22T11:16:44;1.23;;;1.10;;
50779;SDS011;36748;37.428;-121.972;2023-11-22T11:19:15;1.40;;;1.00;;
50779;SDS011;36748;37.428;-121.972;2023-11-22T11:21:47;1.15;;;1.00;;
50779;SDS011;36748;37.428;-121.972;2023-11-22T11:24:13;1.50;;;1.15;;
50779;SDS011;36748;37.428;-121.972;2023-11-22T11:26:40;1.92;;;1.30;;
50779;SDS011;36748;37.428;-121.972;2023-11-22T11:29:06;1.20;;;1.10;;
50779;SDS011;36748;37.428;-121.972;2023-11-22T11:31:34;2.03;;;1.60;;
50779;SDS011;36748;37.428;-121.972;2023-11-22T11:34:07;1.50;;;1.10;;
50779;SDS011;36748;37.428;-121.972;2023-11-22T11:36:34;2.15;;;1.48;;
50779;SDS011;36748;37.428;-121.972;2023-11-22T11:39:06;1.30;;;1.20;;
50779;SDS011;36748;37.428;-121.972;2023-11-22T11:41:39;2.00;;;1.23;;
50779;SDS011;36748;37.428;-121.972;2023-11-22T11:44:07;1.45;;;1.35;;
50779;SDS011;36748;37.428;-121.972;2023-11-22T11:46:45;1.30;;;1.20;;
50779;SDS011;36748;37.428;-121.972;2023-11-22T11:49:14;2.10;;;1.30;;
50779;SDS011;36748;37.428;-121.972;2023-11-22T11:51:40;1.30;;;1.10;;
50779;SDS011;36748;37.428;-121.972;2023-11-22T11:54:08;1.98;;;1.30;;
50779;SDS011;36748;37.428;-121.972;2023-11-22T11:56:36;1.52;;;1.35;;
50779;SDS011;36748;37.428;-121.972;2023-11-22T11:59:03;3.03;;;1.38;;
50779;SDS011;36748;37.428;-121.972;2023-11-22T12:01:30;1.10;;;1.00;;
50779;SDS011;36748;37.428;-121.972;2023-11-22T12:03:57;1.40;;;1.30;;
50779;SDS011;36748;37.428;-121.972;2023-11-22T12:06:28;1.50;;;1.40;;
50779;SDS011;36748;37.428;-121.972;2023-11-22T12:09:22;1.45;;;1.30;;
50779;SDS011;36748;37.428;-121.972;2023-11-22T12:11:52;1.50;;;1.40;;
50779;SDS011;36748;37.428;-121.972;2023-11-22T12:14:19;2.35;;;1.27;;
50779;SDS011;36748;37.428;-121.972;2023-11-22T12:16:46;1.20;;;1.10;;
50779;SDS011;36748;37.428;-121.972;2023-11-22T12:19:22;2.63;;;1.40;;
50779;SDS011;36748;37.428;-121.972;2023-11-22T12:21:49;2.08;;;1.40;;
50779;SDS011;36748;37.428;-121.972;2023-11-22T12:24:15;1.17;;;1.08;;
50779;SDS011;36748;37.428;-121.972;2023-11-22T12:26:45;1.52;;;1.40;;
50779;SDS011;36748;37.428;-121.972;2023-11-22T12:29:15;1.70;;;1.15;;
50779;SDS011;36748;37.428;-121.972;2023-11-22T12:31:44;2.13;;;1.30;;
50779;SDS011;36748;37.428;-121.972;2023-11-22T12:34:18;1.40;;;1.30;;
50779;SDS011;36748;37.428;-121.972;2023-11-22T12:36:45;1.35;;;1.20;;
50779;SDS011;36748;37.428;-121.972;2023-11-22T12:39:15;2.35;;;1.60;;
50779;SDS011;36748;37.428;-121.972;2023-11-22T12:41:49;1.55;;;1.23;;
50779;SDS011;36748;37.428;-121.972;2023-11-22T12:44:16;2.10;;;1.17;;
50779;SDS011;36748;37.428;-121.972;2023-11-22T12:46:52;1.27;;;1.17;;
50779;SDS011;36748;37.428;-121.972;2023-11-22T12:49:24;1.70;;;1.20;;
50779;SDS011;36748;37.428;-121.972;2023-11-22T12:51:53;1.90;;;1.23;;
50779;SDS011;36748;37.428;-121.972;2023-11-22T12:54:20;1.52;;;1.42;;
50779;SDS011;36748;37.428;-121.972;2023-11-22T12:56:47;1.63;;;1.33;;
50779;SDS011;36748;37.428;-121.972;2023-11-22T12:59:19;2.15;;;1.45;;
50779;SDS011;36748;37.428;-121.972;2023-11-22T13:01:45;1.67;;;1.55;;
50779;SDS011;36748;37.428;-121.972;2023-11-22T13:04:12;1.98;;;1.65;;
50779;SDS011;36748;37.428;-121.972;2023-11-22T13:06:39;2.20;;;1.60;;
50779;SDS011;36748;37.428;-121.972;2023-11-22T13:09:06;2.60;;;1.50;;
50779;SDS011;36748;37.428;-121.972;2023-11-22T13:11:32;2.08;;;1.30;;
50779;SDS011;36748;37.428;-121.972;2023-11-22T13:13:59;1.90;;;1.42;;
50779;SDS011;36748;37.428;-121.972;2023-11-22T13:16:25;1.63;;;1.20;;
50779;SDS011;36748;37.428;-121.972;2023-11-22T13:18:52;1.52;;;1.38;;
50779;SDS011;36748;37.428;-121.972;2023-11-22T13:21:18;1.48;;;1.38;;
50779;SDS011;36748;37.428;-121.972;2023-11-22T13:23:45;3.15;;;1.58;;
50779;SDS011;36748;37.428;-121.972;2023-11-22T13:26:11;2.22;;;1.40;;
50779;SDS011;36748;37.428;-121.972;2023-11-22T13:28:39;1.65;;;1.20;;
50779;SDS011;36748;37.428;-121.972;2023-11-22T13:31:07;2.55;;;1.25;;
50779;SDS011;36748;37.428;-121.972;2023-11-22T13:33:35;2.30;;;1.48;;
50779;SDS011;36748;37.428;-121.972;2023-11-22T13:36:01;2.78;;;1.65;;
50779;SDS011;36748;37.428;-121.972;2023-11-22T13:38:27;1.27;;;1.17;;
50779;SDS011;36748;37.428;-121.972;2023-11-22T13:40:53;1.60;;;1.42;;
50779;SDS011;36748;37.428;-121.972;2023-11-22T13:43:20;1.25;;;1.15;;
50779;SDS011;36748;37.428;-121.972;2023-11-22T13:45:46;2.28;;;1.40;;
50779;SDS011;36748;37.428;-121.972;2023-11-22T13:48:12;2.75;;;1.50;;
50779;SDS011;36748;37.428;-121.972;2023-11-22T13:50:38;1.30;;;1.20;;
50779;SDS011;36748;37.428;-121.972;2023-11-22T13:53:05;1.70;;;1.30;;
50779;SDS011;36748;37.428;-121.972;2023-11-22T13:55:34;2.35;;;1.40;;
50779;SDS011;36748;37.428;-121.972;2023-11-22T13:58:02;3.65;;;1.60;;
50779;SDS011;36748;37.428;-121.972;2023-11-22T14:00:30;2.25;;;1.30;;
50779;SDS011;36748;37.428;-121.972;2023-11-22T14:03:00;1.95;;;1.45;;
50779;SDS011;36748;37.428;-121.972;2023-11-22T14:05:37;1.60;;;1.50;;
50779;SDS011;36748;37.428;-121.972;2023-11-22T14:08:04;4.03;;;1.42;;
50779;SDS011;36748;37.428;-121.972;2023-11-22T14:10:33;2.08;;;1.30;;
50779;SDS011;36748;37.428;-121.972;2023-11-22T14:13:00;1.63;;;1.50;;
50779;SDS011;36748;37.428;-121.972;2023-11-22T14:15:28;2.22;;;1.45;;
50779;SDS011;36748;37.428;-121.972;2023-11-22T14:17:54;3.28;;;1.55;;